Pagina principale
METAR-TAF:

METAR-TAF

Aeroporti :

Aeroporto delle Midlands Orientali

Midlands Orientali, Inghilterra

latitudine: 52-50N, longitudine: 001-20W, altezza: 94 m

Osservazione

Il bollettino è stato emesso 21 minuti fa, alle 16:20 UTC
Vento 12 kt da est/nord-est
Temperature 23°C
Umidità 33%
Pressione 1023 hPa
Visibilità 10 km o più
nessuna nube inferiore a 1500 m e nessun cumulonembo

METAR: EGNX 311620Z 07012KT CAVOK 23/06 Q1023

Ora: 17:41 (16:41 UTC)

Previsione

Il bollettino è stato emesso 4 ore e 4 minuti fa, alle 12:37 UTC
Previsione valida dal 31 alle 12 UTC al 01 alle 12 UTC
Vento 9 kt da est
Visibilità 10 km o più
nessuna nube inferiore a 1500 m e nessun cumulonembo

TAF: EGNX 311237Z 3112/0112 09009KT CAVOK

Osservazioni e previsioni meteorologiche di più di 4000 aeroporti (messaggi METAR e TAF).

Le stazioni disponibili sono rappresentate dai dischi gialli e rossi sulla carta.

Puntare il mouse per vedere il nome della stazione.

Clicca sopra per visualizzare le osservazioni e previsioni meteorologiche.

Per cambiare la mappa : fare clic sui pulsanti verdi con una croce nera per ingrandire, il pulsante verde con un trattino per diminuire, o sulla freccia verde per le mappe adiacenti.


METAR-TAF: